Time;durP1;ratioP1;P1;durP2;ratioP2;P2;SDS_P1;SDS_P2;PMS_P1;PMS_P2;Temp;Humidity;BMP_temperature;BMP_pressure;BME280_temperature;BME280_humidity;BME280_pressure;Samples;Min_cycle;Max_cycle;Signal;HPM_P1;HPM_P2
2023/07/05 00:00:19;;;;;;;;;;;;;;;25.01;67.33;100601.44;7393953;19;1739;-55
2023/07/05 00:02:48;;;;;;;;;;;;;;;24.96;67.35;100614.66;7394691;19;1845;-55
2023/07/05 00:05:16;;;;;;;;;;;;;;;24.97;67.29;100608.25;7394476;19;1382;-54
2023/07/05 00:07:44;;;;;;;;;;;;;;;24.96;67.19;100598.41;7396688;19;2069;-55
2023/07/05 00:10:15;;;;;;;;;;;;;;;24.97;67.28;100610.09;7395537;19;1805;-55
2023/07/05 00:12:44;;;;;;;;;;;;;;;24.94;67.46;100605.03;7396135;19;1851;-55
2023/07/05 00:15:12;;;;;;;;;;;;;;;24.94;67.48;100622.09;7396529;19;1821;-55
2023/07/05 00:17:41;;;;;;;;;;;;;;;24.95;67.32;100607.56;7400360;19;1407;-55
2023/07/05 00:20:10;;;;;;;;;;;;;;;24.89;67.55;100610.13;7404050;19;999;-55
2023/07/05 00:22:38;;;;;;;;;;;;;;;24.93;67.61;100606.03;7399678;19;1913;-54
2023/07/05 00:25:07;;;;;;;;;;;;;;;24.95;67.36;100623.81;7402750;19;1533;-55
2023/07/05 00:27:38;;;;;;;;;;;;;;;24.95;67.23;100599.47;7402952;19;1937;-55
2023/07/05 00:30:07;;;;;;;;;;;;;;;24.96;67.36;100601.13;7403462;19;1021;-54
2023/07/05 00:32:35;;;;;;;;;;;;;;;24.89;67.50;100616.41;7402640;19;1870;-55
2023/07/05 00:35:04;;;;;;;;;;;;;;;24.92;67.33;100607.91;7402479;19;1618;-55
2023/07/05 00:37:32;;;;;;;;;;;;;;;24.93;67.33;100614.16;7403317;19;1501;-55
2023/07/05 00:40:00;;;;;;;;;;;;;;;24.88;67.40;100600.34;7402274;19;1394;-55
2023/07/05 00:42:29;;;;;;;;;;;;;;;24.91;67.66;100608.97;7402594;19;1841;-54
2023/07/05 00:45:29;;;;;;;;;;;;;;;24.92;67.39;100597.09;7402729;19;1957;-55
2023/07/05 00:47:57;;;;;;;;;;;;;;;24.92;67.35;100597.09;7402056;19;1801;-55
2023/07/05 00:50:27;;;;;;;;;;;;;;;24.88;67.40;100605.75;7402339;19;1023;-55
2023/07/05 00:52:57;;;;;;;;;;;;;;;24.85;67.52;100609.66;7402773;19;2039;-55
2023/07/05 00:55:27;;;;;;;;;;;;;;;24.91;67.30;100606.25;7401982;19;1874;-55
2023/07/05 00:57:55;;;;;;;;;;;;;;;24.87;67.74;100599.50;7396324;19;1897;-55
2023/07/05 01:00:27;;;;;;;;;;;;;;;24.87;67.46;100594.09;7401418;19;1700;-54
2023/07/05 01:02:57;;;;;;;;;;;;;;;24.88;67.26;100603.06;7400998;19;1878;-55
2023/07/05 01:05:27;;;;;;;;;;;;;;;24.90;67.59;100601.00;7402815;19;1037;-55
2023/07/05 01:07:55;;;;;;;;;;;;;;;24.93;67.21;100597.94;7401393;19;1424;-55
2023/07/05 01:10:25;;;;;;;;;;;;;;;24.93;67.29;100595.22;7401020;19;1624;-55
2023/07/05 01:12:58;;;;;;;;;;;;;;;24.91;67.46;100605.38;7401041;19;1474;-54
2023/07/05 01:15:31;;;;;;;;;;;;;;;24.84;67.84;100599.84;7400733;19;1957;-55
2023/07/05 01:18:04;;;;;;;;;;;;;;;24.87;67.52;100599.50;7401727;19;1751;-55
2023/07/05 01:20:37;;;;;;;;;;;;;;;24.86;67.41;100587.00;7398671;19;1814;-55
2023/07/05 01:23:29;;;;;;;;;;;;;;;24.86;67.55;100608.63;7400356;19;1853;-55
2023/07/05 01:26:24;;;;;;;;;;;;;;;24.88;67.73;100595.78;7397417;19;2303;-54
2023/07/05 01:29:02;;;;;;;;;;;;;;;24.88;67.36;100601.19;7394296;19;1070;-55
2023/07/05 01:31:47;;;;;;;;;;;;;;;24.90;67.40;100607.25;7396299;19;1729;-54
2023/07/05 01:34:21;;;;;;;;;;;;;;;24.90;67.29;100582.91;7400296;19;1850;-55
2023/07/05 01:36:50;;;;;;;;;;;;;;;24.91;67.39;100589.16;7400604;19;1042;-54
2023/07/05 01:39:18;;;;;;;;;;;;;;;24.90;67.35;100582.91;7399972;19;1971;-55
2023/07/05 01:41:47;;;;;;;;;;;;;;;24.89;67.46;100592.06;7400071;19;1845;-54
2023/07/05 01:44:16;;;;;;;;;;;;;;;24.88;67.26;100582.25;7400175;19;1743;-55
2023/07/05 01:46:53;;;;;;;;;;;;;;;24.92;67.34;100574.63;7400299;19;1661;-55
2023/07/05 01:49:30;;;;;;;;;;;;;;;24.91;67.51;100584.59;7399559;19;1359;-55
2023/07/05 01:52:00;;;;;;;;;;;;;;;24.89;67.45;100586.66;7398474;19;1500;-55
2023/07/05 01:54:32;;;;;;;;;;;;;;;24.90;67.27;100572.09;7398621;19;1720;-55
2023/07/05 01:57:04;;;;;;;;;;;;;;;24.81;67.48;100578.59;7396244;19;1419;-55
2023/07/05 01:59:36;;;;;;;;;;;;;;;24.86;67.37;100580.75;7398587;19;1421;-54
2023/07/05 02:02:08;;;;;;;;;;;;;;;24.89;67.36;100588.50;7397587;19;1847;-55
2023/07/05 02:04:37;;;;;;;;;;;;;;;24.90;67.49;100593.72;7398677;19;1519;-55
2023/07/05 02:07:06;;;;;;;;;;;;;;;24.85;67.58;100590.75;7399540;19;1759;-55
2023/07/05 02:09:37;;;;;;;;;;;;;;;24.88;67.59;100593.06;7400299;19;1086;-55
2023/07/05 02:12:06;;;;;;;;;;;;;;;24.88;67.38;100584.13;7400306;19;1046;-55
2023/07/05 02:14:34;;;;;;;;;;;;;;;24.83;67.47;100597.31;7399669;19;1533;-54
2023/07/05 02:17:02;;;;;;;;;;;;;;;24.86;67.31;100587.00;7399712;19;1881;-54
2023/07/05 02:19:33;;;;;;;;;;;;;;;24.83;67.78;100591.91;7398879;19;1411;-55
2023/07/05 02:22:02;;;;;;;;;;;;;;;24.84;67.73;100597.16;7398496;19;1867;-55
2023/07/05 02:24:31;;;;;;;;;;;;;;;24.91;67.20;100595.44;7399393;19;1661;-56
2023/07/05 02:27:00;;;;;;;;;;;;;;;24.81;67.69;100592.13;7398502;19;1723;-55
2023/07/05 02:29:30;;;;;;;;;;;;;;;24.83;67.71;100581.09;7398955;19;1012;-55
2023/07/05 02:31:58;;;;;;;;;;;;;;;24.82;67.52;100585.66;7397007;19;1944;-55
2023/07/05 02:34:26;;;;;;;;;;;;;;;24.83;67.68;100592.78;7396888;19;1723;-55
2023/07/05 02:36:57;;;;;;;;;;;;;;;24.81;67.76;100602.94;7398210;19;1469;-55
2023/07/05 02:39:26;;;;;;;;;;;;;;;24.81;67.56;100590.25;7399010;19;1838;-55
2023/07/05 02:41:54;;;;;;;;;;;;;;;24.88;67.70;100603.06;7397971;19;1656;-56
2023/07/05 02:44:22;;;;;;;;;;;;;;;24.89;67.61;100605.59;7396483;19;1853;-55
2023/07/05 02:46:50;;;;;;;;;;;;;;;24.87;67.26;100610.34;7397578;19;1833;-55
2023/07/05 02:49:19;;;;;;;;;;;;;;;24.88;67.49;100606.59;7397966;19;1844;-55
2023/07/05 02:51:47;;;;;;;;;;;;;;;24.91;67.42;100599.97;7398874;19;1191;-55
2023/07/05 02:54:18;;;;;;;;;;;;;;;24.93;67.22;100587.97;7396479;19;1858;-55
2023/07/05 02:56:46;;;;;;;;;;;;;;;24.87;67.44;100604.06;7393911;19;1109;-55
2023/07/05 02:59:14;;;;;;;;;;;;;;;24.89;67.58;100602.88;7397409;19;2191;-55
2023/07/05 03:01:42;;;;;;;;;;;;;;;24.89;67.28;100613.69;7397276;19;1712;-55
2023/07/05 03:04:11;;;;;;;;;;;;;;;24.85;67.33;100601.56;7396071;19;1893;-55
2023/07/05 03:06:39;;;;;;;;;;;;;;;24.87;67.35;100609.47;7396400;19;1846;-55
2023/07/05 03:09:08;;;;;;;;;;;;;;;24.89;67.53;100596.59;7396709;19;1696;-55
2023/07/05 03:11:39;;;;;;;;;;;;;;;24.84;67.34;100616.09;7395954;19;1489;-55
2023/07/05 03:14:07;;;;;;;;;;;;;;;24.82;67.49;100596.50;7396934;19;1505;-54
2023/07/05 03:16:35;;;;;;;;;;;;;;;24.83;67.54;100614.41;7397140;19;1758;-55
2023/07/05 03:19:03;;;;;;;;;;;;;;;24.83;67.53;100602.72;7397724;19;1802;-55
2023/07/05 03:21:32;;;;;;;;;;;;;;;24.83;67.58;100603.59;7398929;19;937;-54
2023/07/05 03:24:00;;;;;;;;;;;;;;;24.83;67.57;100609.00;7392985;19;1853;-54
2023/07/05 03:26:29;;;;;;;;;;;;;;;24.88;67.39;100612.00;7395451;19;1730;-55
2023/07/05 03:28:59;;;;;;;;;;;;;;;24.83;67.54;100603.59;7397794;19;953;-54
2023/07/05 03:31:28;;;;;;;;;;;;;;;24.86;67.50;100596.97;7395691;19;1869;-55
2023/07/05 03:33:56;;;;;;;;;;;;;;;24.84;67.53;100607.97;7395723;19;1814;-55
2023/07/05 03:36:24;;;;;;;;;;;;;;;24.85;67.48;100616.91;7397595;19;1106;-55
2023/07/05 03:38:53;;;;;;;;;;;;;;;24.87;67.45;100618.44;7393394;19;1609;-55
2023/07/05 03:41:22;;;;;;;;;;;;;;;24.81;67.64;100613.75;7396448;19;1809;-54
2023/07/05 03:43:54;;;;;;;;;;;;;;;24.84;67.38;100613.38;7394462;19;1849;-54
2023/07/05 03:46:25;;;;;;;;;;;;;;;24.82;67.84;100623.53;7395310;19;1371;-55
2023/07/05 03:48:54;;;;;;;;;;;;;;;24.84;67.54;100621.50;7395431;19;1794;-54
2023/07/05 03:51:23;;;;;;;;;;;;;;;24.86;67.44;100610.50;7397092;19;1731;-54
2023/07/05 03:53:52;;;;;;;;;;;;;;;24.82;67.35;100604.59;7404077;19;1801;-55
2023/07/05 03:56:21;;;;;;;;;;;;;;;24.80;67.52;100614.75;7402697;19;1130;-55
2023/07/05 03:58:49;;;;;;;;;;;;;;;24.80;67.64;100609.34;7402099;19;1746;-55
2023/07/05 04:01:19;;;;;;;;;;;;;;;24.77;67.75;100615.97;7404022;19;1031;-55
2023/07/05 04:03:52;;;;;;;;;;;;;;;24.75;68.03;100619.84;7398406;19;1849;-55
2023/07/05 04:06:20;;;;;;;;;;;;;;;24.78;67.75;100628.44;7402663;19;1780;-55
2023/07/05 04:08:49;;;;;;;;;;;;;;;24.72;68.06;100629.16;7403006;19;1477;-56
2023/07/05 04:11:17;;;;;;;;;;;;;;;24.63;68.16;100618.56;7403631;19;1722;-55
2023/07/05 04:13:46;;;;;;;;;;;;;;;24.62;68.40;100620.44;7401923;19;1763;-55
2023/07/05 04:16:15;;;;;;;;;;;;;;;24.59;68.42;100613.53;7401570;19;1692;-55
2023/07/05 04:18:44;;;;;;;;;;;;;;;24.60;68.37;100623.31;7402341;19;1791;-55
2023/07/05 04:21:15;;;;;;;;;;;;;;;24.64;68.17;100620.25;7401434;19;1750;-55
2023/07/05 04:23:44;;;;;;;;;;;;;;;24.61;68.29;100616.88;7402073;19;1839;-55
2023/07/05 04:26:13;;;;;;;;;;;;;;;24.58;68.32;100605.56;7402965;19;1747;-55
2023/07/05 04:28:42;;;;;;;;;;;;;;;24.57;68.08;100604.75;7403025;19;1043;-55
2023/07/05 04:31:12;;;;;;;;;;;;;;;24.63;68.46;100613.16;7400307;19;1517;-55
2023/07/05 04:33:41;;;;;;;;;;;;;;;24.71;68.04;100605.00;7402551;19;1493;-55
2023/07/05 04:36:09;;;;;;;;;;;;;;;24.83;67.60;100606.31;7402755;19;1050;-54
2023/07/05 04:38:40;;;;;;;;;;;;;;;24.90;67.40;100604.56;7401069;19;1966;-55
2023/07/05 04:41:08;;;;;;;;;;;;;;;24.92;67.30;100605.22;7401402;19;1668;-55
2023/07/05 04:43:36;;;;;;;;;;;;;;;24.91;67.26;100605.38;7399965;19;1849;-54
2023/07/05 04:46:05;;;;;;;;;;;;;;;25.05;67.01;100607.34;7400826;19;1952;-55
2023/07/05 04:48:33;;;;;;;;;;;;;;;24.96;67.05;100593.00;7402506;19;1465;-55
2023/07/05 04:51:01;;;;;;;;;;;;;;;24.90;67.46;100599.13;7402005;19;1734;-55
2023/07/05 04:53:30;;;;;;;;;;;;;;;24.96;67.40;100603.00;7402215;19;1814;-55
2023/07/05 04:56:03;;;;;;;;;;;;;;;24.84;67.46;100605.25;7401894;19;1109;-54
2023/07/05 04:58:31;;;;;;;;;;;;;;;24.81;67.64;100597.53;7399692;19;1874;-55
2023/07/05 05:01:04;;;;;;;;;;;;;;;24.98;67.18;100606.38;7399978;19;1841;-55
2023/07/05 05:03:32;;;;;;;;;;;;;;;25.04;67.15;100599.41;7398632;19;1858;-55
2023/07/05 05:06:00;;;;;;;;;;;;;;;25.09;66.80;100597.84;7399410;19;1735;-55
2023/07/05 05:08:29;;;;;;;;;;;;;;;25.08;66.68;100590.72;7400426;19;1363;-54
2023/07/05 05:10:58;;;;;;;;;;;;;;;25.07;66.86;100582.78;7401989;19;1106;-55
2023/07/05 05:13:30;;;;;;;;;;;;;;;24.91;67.50;100603.53;7397390;19;1873;-55
2023/07/05 05:15:58;;;;;;;;;;;;;;;24.83;67.69;100616.25;7400756;19;1344;-55
2023/07/05 05:18:27;;;;;;;;;;;;;;;24.79;67.98;100616.63;7400021;19;1418;-55
2023/07/05 05:20:56;;;;;;;;;;;;;;;24.74;67.99;100607.34;7400796;19;1364;-55
2023/07/05 05:23:24;;;;;;;;;;;;;;;24.77;67.94;100612.41;7401787;19;1861;-55
2023/07/05 05:25:52;;;;;;;;;;;;;;;24.70;68.20;100609.56;7401109;19;1494;-55
2023/07/05 05:28:21;;;;;;;;;;;;;;;24.65;68.44;100616.53;7401208;19;1791;-55
2023/07/05 05:30:52;;;;;;;;;;;;;;;24.64;68.45;100610.28;7400087;19;1533;-55
2023/07/05 05:33:20;;;;;;;;;;;;;;;24.65;68.26;100614.69;7400176;19;1772;-55
2023/07/05 05:35:49;;;;;;;;;;;;;;;24.63;68.66;100605.03;7400063;19;1720;-55
2023/07/05 05:38:18;;;;;;;;;;;;;;;24.66;68.48;100608.25;7400630;19;1763;-55
2023/07/05 05:40:48;;;;;;;;;;;;;;;24.64;68.45;100601.34;7398524;19;1800;-55
2023/07/05 05:43:16;;;;;;;;;;;;;;;24.61;68.60;100600.66;7399786;19;1844;-55
2023/07/05 05:45:44;;;;;;;;;;;;;;;24.65;68.52;100600.28;7399259;19;1794;-55
2023/07/05 05:48:15;;;;;;;;;;;;;;;24.63;68.40;100596.94;7398882;19;1940;-55
2023/07/05 05:50:44;;;;;;;;;;;;;;;24.68;68.51;100597.25;7400296;19;1481;-55
2023/07/05 05:53:13;;;;;;;;;;;;;;;24.70;68.36;100608.72;7401185;19;967;-55
2023/07/05 05:55:41;;;;;;;;;;;;;;;24.72;68.30;100612.09;7400441;19;1059;-55
2023/07/05 05:58:10;;;;;;;;;;;;;;;24.81;68.03;100608.34;7399629;19;1497;-55
2023/07/05 06:00:39;;;;;;;;;;;;;;;24.80;68.02;100599.38;7399227;19;1796;-55
2023/07/05 06:03:08;;;;;;;;;;;;;;;24.82;68.03;100591.09;7399920;19;1414;-55
2023/07/05 06:05:39;;;;;;;;;;;;;;;24.81;68.04;100594.81;7396546;19;1948;-55
2023/07/05 06:08:07;;;;;;;;;;;;;;;24.90;67.94;100606.41;7398223;19;1379;-55
2023/07/05 06:10:35;;;;;;;;;;;;;;;24.88;67.76;100603.88;7398994;19;1656;-55
2023/07/05 06:13:04;;;;;;;;;;;;;;;24.85;68.19;100608.81;7398082;19;1387;-55
2023/07/05 06:15:32;;;;;;;;;;;;;;;24.92;67.87;100612.50;7399450;19;1853;-55
2023/07/05 06:18:00;;;;;;;;;;;;;;;25.05;67.38;100607.34;7398720;19;1419;-55
2023/07/05 06:20:33;;;;;;;;;;;;;;;24.97;67.55;100604.69;7398764;19;1739;-55
2023/07/05 06:23:04;;;;;;;;;;;;;;;24.95;67.74;100601.34;7399747;19;1732;-56
2023/07/05 06:25:34;;;;;;;;;;;;;;;24.89;67.86;100602.88;7398646;19;1850;-55
2023/07/05 06:28:02;;;;;;;;;;;;;;;24.92;67.79;100604.38;7399978;19;1682;-55
2023/07/05 06:30:30;;;;;;;;;;;;;;;24.85;68.19;100617.78;7395431;19;1564;-55
2023/07/05 06:32:59;;;;;;;;;;;;;;;24.84;68.17;100602.56;7398315;19;1926;-55
2023/07/05 06:35:27;;;;;;;;;;;;;;;24.85;68.27;100628.59;7399166;19;1007;-55
2023/07/05 06:37:55;;;;;;;;;;;;;;;24.79;68.53;100615.78;7395359;19;1509;-55
2023/07/05 06:40:26;;;;;;;;;;;;;;;24.85;68.32;100623.19;7398502;19;1751;-55
2023/07/05 06:42:55;;;;;;;;;;;;;;;24.83;68.25;100618.97;7397679;19;1402;-55
2023/07/05 06:45:23;;;;;;;;;;;;;;;24.83;68.36;100614.41;7396186;19;1966;-55
2023/07/05 06:47:51;;;;;;;;;;;;;;;24.81;68.09;100619.16;7399854;19;1024;-55
2023/07/05 06:50:20;;;;;;;;;;;;;;;24.79;68.57;100613.09;7398056;19;1644;-55
2023/07/05 06:52:48;;;;;;;;;;;;;;;24.80;68.28;100614.75;7397886;19;1526;-55
2023/07/05 06:55:16;;;;;;;;;;;;;;;24.81;68.27;100616.47;7396907;19;1529;-54
2023/07/05 06:57:47;;;;;;;;;;;;;;;24.80;68.38;100620.16;7396682;19;1513;-55
2023/07/05 07:00:16;;;;;;;;;;;;;;;24.84;68.39;100607.97;7397758;19;1374;-54
2023/07/05 07:02:45;;;;;;;;;;;;;;;24.81;68.15;100651.63;7398916;19;954;-55
2023/07/05 07:05:13;;;;;;;;;;;;;;;24.80;68.58;100642.63;7396829;19;1865;-55
2023/07/05 07:07:41;;;;;;;;;;;;;;;24.82;68.48;100615.41;7397901;19;1528;-55
2023/07/05 07:10:10;;;;;;;;;;;;;;;24.86;68.25;100626.72;7397524;19;1861;-55
2023/07/05 07:12:38;;;;;;;;;;;;;;;24.89;68.04;100621.81;7398357;19;1803;-55
2023/07/05 07:15:10;;;;;;;;;;;;;;;24.93;67.95;100622.28;7397101;19;1462;-55
2023/07/05 07:17:38;;;;;;;;;;;;;;;24.94;67.92;100615.88;7397002;19;1480;-55
2023/07/05 07:20:07;;;;;;;;;;;;;;;24.98;68.01;100628.00;7396769;19;1802;-54
2023/07/05 07:22:36;;;;;;;;;;;;;;;24.94;68.06;100616.69;7397065;19;1326;-56
2023/07/05 07:25:04;;;;;;;;;;;;;;;24.94;68.18;100623.97;7396394;19;1847;-55
2023/07/05 07:27:32;;;;;;;;;;;;;;;24.94;67.82;100624.81;7394814;19;1933;-55
2023/07/05 07:30:01;;;;;;;;;;;;;;;24.97;67.95;100619.06;7397922;19;958;-55
2023/07/05 07:32:31;;;;;;;;;;;;;;;24.96;67.93;100620.06;7396857;19;1810;-55
2023/07/05 07:35:00;;;;;;;;;;;;;;;24.95;68.07;100617.56;7396357;19;1522;-54
2023/07/05 07:37:28;;;;;;;;;;;;;;;24.97;67.81;100624.47;7397348;19;1750;-54
2023/07/05 07:39:56;;;;;;;;;;;;;;;24.98;67.83;100617.19;7397517;19;1736;-56
2023/07/05 07:42:24;;;;;;;;;;;;;;;24.96;67.89;100613.81;7395622;19;1039;-55
2023/07/05 07:44:56;;;;;;;;;;;;;;;24.97;67.93;100626.34;7395754;19;1968;-55
2023/07/05 07:47:24;;;;;;;;;;;;;;;24.94;68.01;100621.28;7396546;19;1932;-55
2023/07/05 07:49:55;;;;;;;;;;;;;;;24.96;67.78;100620.06;7396199;19;1966;-55
2023/07/05 07:52:23;;;;;;;;;;;;;;;24.96;68.04;100636.28;7396925;19;1378;-55
2023/07/05 07:54:52;;;;;;;;;;;;;;;24.99;67.89;100627.84;7395845;19;1755;-55
2023/07/05 07:57:20;;;;;;;;;;;;;;;24.99;67.70;100619.72;7394164;19;1845;-55
2023/07/05 07:59:48;;;;;;;;;;;;;;;24.96;67.96;100625.47;7395732;19;1743;-55
2023/07/05 08:02:16;;;;;;;;;;;;;;;24.99;68.14;100630.53;7395625;19;1752;-55
2023/07/05 08:04:45;;;;;;;;;;;;;;;25.06;67.79;100624.41;7394368;19;1837;-55
2023/07/05 08:07:17;;;;;;;;;;;;;;;25.06;67.38;100624.41;7395296;19;1375;-55
2023/07/05 08:09:49;;;;;;;;;;;;;;;25.09;67.56;100626.75;7395594;19;1422;-55
2023/07/05 08:12:18;;;;;;;;;;;;;;;25.06;67.77;100621.72;7396435;19;1727;-55
2023/07/05 08:14:46;;;;;;;;;;;;;;;25.07;67.61;100623.38;7396222;19;1738;-55
2023/07/05 08:17:15;;;;;;;;;;;;;;;25.12;67.49;100623.69;7397429;19;1002;-55
2023/07/05 08:19:44;;;;;;;;;;;;;;;25.11;67.71;100611.16;7396309;19;1603;-55
2023/07/05 08:22:12;;;;;;;;;;;;;;;25.11;67.50;100616.56;7395823;19;1906;-56
2023/07/05 08:24:43;;;;;;;;;;;;;;;25.09;67.45;100619.50;7394378;19;1855;-55
2023/07/05 08:27:12;;;;;;;;;;;;;;;25.10;67.34;100623.88;7395390;19;1818;-55
2023/07/05 08:29:41;;;;;;;;;;;;;;;25.09;67.56;100629.44;7395039;19;1212;-55
2023/07/05 08:32:09;;;;;;;;;;;;;;;25.13;67.50;100633.50;7394772;19;1865;-55
2023/07/05 08:34:38;;;;;;;;;;;;;;;25.16;67.28;100631.25;7395024;19;1712;-55
2023/07/05 08:37:06;;;;;;;;;;;;;;;25.14;67.51;100611.66;7395471;19;1098;-55
2023/07/05 08:39:35;;;;;;;;;;;;;;;25.11;67.50;100616.56;7402518;19;1446;-55
2023/07/05 08:42:21;;;;;;;;;;;;;;;25.13;67.66;100623.53;7403366;19;1917;-55
2023/07/05 08:45:00;;;;;;;;;;;;;;;25.16;67.27;100620.44;7401428;19;1847;-55
2023/07/05 08:47:32;;;;;;;;;;;;;;;25.15;67.17;100613.34;7399855;19;1383;-55
2023/07/05 08:50:09;;;;;;;;;;;;;;;25.14;67.28;100611.66;7401180;19;1770;-55
2023/07/05 08:52:42;;;;;;;;;;;;;;;25.16;67.20;100609.63;7403836;19;999;-55
2023/07/05 08:55:15;;;;;;;;;;;;;;;25.15;67.64;100612.53;7402621;19;1788;-55
2023/07/05 08:57:45;;;;;;;;;;;;;;;25.18;67.46;100614.84;7399537;19;1963;-55
2023/07/05 09:00:19;;;;;;;;;;;;;;;25.14;67.31;100592.72;7401203;19;1840;-55
2023/07/05 09:02:47;;;;;;;;;;;;;;;25.14;67.38;100611.66;7401862;19;1410;-55
2023/07/05 09:05:17;;;;;;;;;;;;;;;25.12;67.43;100602.03;7397580;19;1845;-55
2023/07/05 09:07:50;;;;;;;;;;;;;;;25.14;67.29;100613.53;7401506;19;1664;-55
2023/07/05 09:10:23;;;;;;;;;;;;;;;25.13;67.57;100619.97;7402101;19;1723;-55
2023/07/05 09:12:53;;;;;;;;;;;;;;;25.12;67.37;100612.88;7401372;19;1398;-55
2023/07/05 09:15:26;;;;;;;;;;;;;;;25.09;67.47;100615.91;7401446;19;1735;-55
2023/07/05 09:17:55;;;;;;;;;;;;;;;25.08;67.66;100611.53;7401452;19;1398;-55
2023/07/05 09:20:38;;;;;;;;;;;;;;;25.10;67.72;100615.75;7401511;19;1370;-56
2023/07/05 09:23:09;;;;;;;;;;;;;;;25.08;67.63;100600.72;7401470;19;1456;-55
2023/07/05 09:25:39;;;;;;;;;;;;;;;25.08;67.50;100600.72;7401201;19;1862;-55
2023/07/05 09:28:10;;;;;;;;;;;;;;;25.05;67.84;100598.38;7400653;19;1528;-55
2023/07/05 09:30:41;;;;;;;;;;;;;;;25.01;67.67;100584.38;7397266;19;1922;-54
2023/07/05 09:33:12;;;;;;;;;;;;;;;25.01;67.59;100596.03;7401257;19;1837;-54
2023/07/05 09:35:44;;;;;;;;;;;;;;;25.01;67.84;100593.31;7402099;19;1018;-55
2023/07/05 09:38:14;;;;;;;;;;;;;;;25.06;67.71;100591.94;7397765;19;1580;-54
2023/07/05 09:40:46;;;;;;;;;;;;;;;25.06;67.55;100602.78;7400569;19;1367;-55
2023/07/05 09:43:15;;;;;;;;;;;;;;;25.09;67.46;100594.28;7400701;19;1514;-55
2023/07/05 09:45:46;;;;;;;;;;;;;;;25.10;67.55;100593.28;7400595;19;1856;-55
2023/07/05 09:48:14;;;;;;;;;;;;;;;25.11;67.59;100600.34;7401562;19;1029;-55
2023/07/05 09:50:49;;;;;;;;;;;;;;;25.11;67.51;100592.22;7398907;19;1854;-55
2023/07/05 09:53:26;;;;;;;;;;;;;;;25.13;67.42;100576.69;7396906;19;1885;-55
2023/07/05 09:56:04;;;;;;;;;;;;;;;25.10;67.67;100591.41;7398563;19;1033;-55
2023/07/05 09:58:33;;;;;;;;;;;;;;;25.11;67.57;100586.81;7397949;19;1861;-55
2023/07/05 10:01:05;;;;;;;;;;;;;;;25.07;67.74;100577.38;7399950;19;1021;-55
2023/07/05 10:03:36;;;;;;;;;;;;;;;25.09;67.38;100586.16;7399181;19;1619;-55
2023/07/05 10:06:07;;;;;;;;;;;;;;;25.10;67.53;100587.84;7398964;19;1853;-55
2023/07/05 10:08:44;;;;;;;;;;;;;;;25.08;67.70;100576.38;7399114;19;1837;-56
2023/07/05 10:11:22;;;;;;;;;;;;;;;25.10;67.60;100583.28;7399161;19;1818;-54
2023/07/05 10:14:02;;;;;;;;;;;;;;;25.09;67.68;100580.75;7399279;19;1399;-54
2023/07/05 10:16:45;;;;;;;;;;;;;;;25.06;67.59;100581.13;7398676;19;1477;-55
2023/07/05 10:19:23;;;;;;;;;;;;;;;25.06;67.54;100581.13;7397256;19;1826;-55
2023/07/05 10:21:54;;;;;;;;;;;;;;;25.08;67.43;100570.97;7399108;19;1787;-55
2023/07/05 10:24:22;;;;;;;;;;;;;;;25.03;67.36;100568.81;7398535;19;1815;-55
2023/07/05 10:26:52;;;;;;;;;;;;;;;25.00;67.59;100566.44;7396304;19;1840;-55
2023/07/05 10:29:23;;;;;;;;;;;;;;;25.00;67.67;100570.00;7399034;19;1046;-55
2023/07/05 10:31:57;;;;;;;;;;;;;;;24.96;67.88;100571.38;7397172;19;1526;-55
2023/07/05 10:34:26;;;;;;;;;;;;;;;24.92;67.86;100555.69;7399004;19;1801;-54
2023/07/05 10:36:55;;;;;;;;;;;;;;;24.93;67.94;100555.53;7399224;19;1018;-55
2023/07/05 10:39:24;;;;;;;;;;;;;;;24.90;68.03;100541.50;7398093;19;1956;-56
2023/07/05 10:41:58;;;;;;;;;;;;;;;24.89;67.90;100546.09;7396596;19;1862;-55
2023/07/05 10:44:29;;;;;;;;;;;;;;;24.93;68.12;100549.25;7399012;19;1390;-54
2023/07/05 10:47:02;;;;;;;;;;;;;;;24.95;67.99;100558.06;7396959;19;1842;-55
2023/07/05 10:49:33;;;;;;;;;;;;;;;24.93;68.09;100560.94;7397374;19;1755;-55
2023/07/05 10:52:05;;;;;;;;;;;;;;;24.97;68.06;100546.00;7397792;19;1382;-55
2023/07/05 10:54:35;;;;;;;;;;;;;;;25.00;67.82;100540.22;7398279;19;1718;-55
2023/07/05 10:57:06;;;;;;;;;;;;;;;25.02;67.70;100535.47;7395913;19;1426;-55
2023/07/05 10:59:38;;;;;;;;;;;;;;;25.07;67.73;100539.50;7397141;19;1724;-55
2023/07/05 11:02:20;;;;;;;;;;;;;;;25.06;67.70;100530.56;7394379;19;1794;-56
2023/07/05 11:04:50;;;;;;;;;;;;;;;25.07;67.42;100534.09;7397883;19;1712;-55
2023/07/05 11:07:20;;;;;;;;;;;;;;;25.02;67.63;100531.94;7397947;19;1402;-56
2023/07/05 11:09:49;;;;;;;;;;;;;;;25.02;67.59;100531.94;7398255;19;1656;-55
2023/07/05 11:12:20;;;;;;;;;;;;;;;25.00;67.90;100545.63;7398910;19;1064;-55
2023/07/05 11:14:48;;;;;;;;;;;;;;;24.96;67.80;100529.97;7397597;19;1624;-55
2023/07/05 11:17:25;;;;;;;;;;;;;;;24.93;67.94;100527.59;7397528;19;1604;-55
2023/07/05 11:19:53;;;;;;;;;;;;;;;24.93;67.93;100520.34;7396953;19;1866;-55
2023/07/05 11:22:37;;;;;;;;;;;;;;;24.94;67.93;100532.00;7397451;19;1756;-55
2023/07/05 11:25:05;;;;;;;;;;;;;;;24.90;68.06;100511.75;7396970;19;1905;-55
2023/07/05 11:27:44;;;;;;;;;;;;;;;24.92;68.06;100525.94;7397211;19;1727;-55
2023/07/05 11:30:27;;;;;;;;;;;;;;;24.91;68.03;100525.09;7398180;19;1012;-55
2023/07/05 11:33:13;;;;;;;;;;;;;;;24.90;68.15;100514.47;7398406;19;1698;-55
2023/07/05 11:35:48;;;;;;;;;;;;;;;24.93;67.76;100511.38;7398167;19;1003;-55
2023/07/05 11:38:31;;;;;;;;;;;;;;;24.93;67.85;100498.72;7395324;19;1821;-55
2023/07/05 11:41:01;;;;;;;;;;;;;;;24.91;67.89;100508.88;7396054;19;1834;-55
2023/07/05 11:43:36;;;;;;;;;;;;;;;24.90;68.05;100501.75;7395637;19;1386;-55
2023/07/05 11:46:04;;;;;;;;;;;;;;;24.91;68.08;100503.47;7396439;19;1882;-55
2023/07/05 11:48:45;;;;;;;;;;;;;;;24.91;68.29;100499.88;7396932;19;1516;-55
2023/07/05 11:51:21;;;;;;;;;;;;;;;24.90;67.97;100490.94;7396613;19;1774;-55
2023/07/05 11:53:50;;;;;;;;;;;;;;;24.89;68.13;100494.69;7396583;19;1719;-55
2023/07/05 11:56:20;;;;;;;;;;;;;;;24.89;68.08;100493.81;7395085;19;1912;-55
2023/07/05 11:58:51;;;;;;;;;;;;;;;24.93;68.21;100487.91;7396566;19;1746;-55
2023/07/05 12:01:24;;;;;;;;;;;;;;;24.93;68.15;100481.63;7397259;19;1065;-55
2023/07/05 12:03:55;;;;;;;;;;;;;;;24.94;67.97;100478.75;7396878;19;1846;-55
2023/07/05 12:06:27;;;;;;;;;;;;;;;24.95;67.77;100471.50;7395033;19;1862;-55
2023/07/05 12:08:57;;;;;;;;;;;;;;;25.01;67.97;100468.88;7396197;19;1391;-55
2023/07/05 12:11:32;;;;;;;;;;;;;;;25.04;67.80;100469.53;7396598;19;1738;-55
2023/07/05 12:14:02;;;;;;;;;;;;;;;25.04;67.85;100469.53;7401187;19;1747;-55
2023/07/05 12:16:31;;;;;;;;;;;;;;;25.04;67.86;100462.25;7403410;19;1748;-55
2023/07/05 12:19:00;;;;;;;;;;;;;;;25.05;67.58;100465.78;7402485;19;1818;-56
2023/07/05 12:21:34;;;;;;;;;;;;;;;25.05;67.43;100469.38;7402415;19;1695;-55
2023/07/05 12:24:05;;;;;;;;;;;;;;;25.05;67.64;100466.66;7402309;19;1498;-55
2023/07/05 12:26:34;;;;;;;;;;;;;;;25.05;67.61;100449.56;7402503;19;1869;-55
2023/07/05 12:29:03;;;;;;;;;;;;;;;25.05;67.49;100457.69;7403736;19;1077;-55
2023/07/05 12:31:32;;;;;;;;;;;;;;;25.05;67.82;100455.84;7401312;19;1617;-55
2023/07/05 12:34:03;;;;;;;;;;;;;;;25.02;67.91;100457.03;7401908;19;1667;-55
2023/07/05 12:36:42;;;;;;;;;;;;;;;25.01;67.70;100439.13;7404098;19;1046;-55
2023/07/05 12:39:13;;;;;;;;;;;;;;;25.02;67.77;100439.97;7402085;19;1830;-56
2023/07/05 12:41:41;;;;;;;;;;;;;;;25.02;67.66;100424.56;7403024;19;1457;-55
2023/07/05 12:44:14;;;;;;;;;;;;;;;24.96;67.91;100428.00;7402135;19;1759;-55
2023/07/05 12:46:44;;;;;;;;;;;;;;;24.96;68.10;100436.13;7400595;19;1851;-55
2023/07/05 12:49:14;;;;;;;;;;;;;;;24.95;67.78;100425.50;7401527;19;1712;-55
2023/07/05 12:51:53;;;;;;;;;;;;;;;24.99;67.77;100433.06;7401199;19;1796;-55
2023/07/05 12:54:21;;;;;;;;;;;;;;;24.99;67.83;100430.34;7400865;19;1726;-55
2023/07/05 12:56:50;;;;;;;;;;;;;;;24.95;67.87;100420.94;7401443;19;1102;-54
2023/07/05 12:59:26;;;;;;;;;;;;;;;24.96;67.90;100409.06;7401017;19;1869;-55
2023/07/05 13:01:54;;;;;;;;;;;;;;;24.99;67.73;100419.53;7402332;19;1485;-55
2023/07/05 13:04:23;;;;;;;;;;;;;;;24.92;68.01;100426.69;7401579;19;1707;-55